createdAt,value
2023-03-04T00:02:06.744Z,1025.1
2023-03-04T00:07:54.181Z,1025.2
2023-03-04T00:13:05.677Z,1025.2
2023-03-04T00:19:01.667Z,1025.2
2023-03-04T00:24:33.337Z,1025
2023-03-04T00:30:01.272Z,1025
2023-03-04T00:35:35.556Z,1024.8
2023-03-04T00:41:07.513Z,1024.9
2023-03-04T00:46:41.278Z,1024.8
2023-03-04T00:51:56.646Z,1024.9
2023-03-04T00:57:30.771Z,1025
2023-03-04T01:03:15.747Z,1025
2023-03-04T01:08:44.539Z,1025.1
2023-03-04T01:14:18.315Z,1025.2
2023-03-04T01:19:49.529Z,1025.1
2023-03-04T01:25:17.145Z,1025
2023-03-04T01:30:52.560Z,1024.9
2023-03-04T01:36:40.193Z,1024.8
2023-03-04T01:42:11.323Z,1024.9
2023-03-04T01:47:28.379Z,1024.9
2023-03-04T01:53:18.749Z,1024.9
2023-03-04T01:58:56.878Z,1024.9
2023-03-04T02:04:15.660Z,1024.9
2023-03-04T02:09:41.537Z,1024.8
2023-03-04T02:15:21.823Z,1024.7
2023-03-04T02:21:06.020Z,1024.6
2023-03-04T02:26:45.604Z,1024.6
2023-03-04T02:32:02.150Z,1024.5
2023-03-04T02:37:52.121Z,1024.5
2023-03-04T02:42:59.568Z,1024.5
2023-03-04T02:48:50.917Z,1024.4
2023-03-04T02:54:05.517Z,1024.5
2023-03-04T02:59:46.227Z,1024.5
2023-03-04T03:05:33.929Z,1024.6
2023-03-04T03:10:54.533Z,1024.6
2023-03-04T03:16:35.060Z,1024.6
2023-03-04T03:22:09.760Z,1024.5
2023-03-04T03:27:34.163Z,1024.4
2023-03-04T03:33:17.602Z,1024.4
2023-03-04T03:38:47.044Z,1024.5
2023-03-04T03:44:03.557Z,1024.6
2023-03-04T03:50:00.092Z,1024.7
2023-03-04T03:55:30.055Z,1024.7
2023-03-04T04:01:09.425Z,1024.8
2023-03-04T04:06:16.838Z,1024.8
2023-03-04T04:11:51.668Z,1024.8
2023-03-04T04:17:35.735Z,1024.8
2023-03-04T04:23:21.553Z,1024.8
2023-03-04T04:28:53.458Z,1024.8
2023-03-04T04:34:17.138Z,1024.8
2023-03-04T04:39:41.750Z,1024.9
2023-03-04T04:45:29.011Z,1024.8
2023-03-04T04:50:57.027Z,1024.8
2023-03-04T04:56:16.504Z,1024.8
2023-03-04T05:01:47.464Z,1024.8
2023-03-04T05:07:32.301Z,1024.7
2023-03-04T05:12:56.919Z,1024.7
2023-03-04T05:18:47.891Z,1024.7
2023-03-04T05:24:15.719Z,1024.6
2023-03-04T05:29:37.538Z,1024.7
2023-03-04T05:35:06.099Z,1024.7
2023-03-04T05:40:40.501Z,1024.7
2023-03-04T05:46:19.400Z,1024.8
2023-03-04T05:51:47.713Z,1024.9
2023-03-04T05:57:32.564Z,1024.9
2023-03-04T06:03:06.512Z,1025
2023-03-04T06:08:33.786Z,1025
2023-03-04T06:13:58.532Z,1025
2023-03-04T06:19:49.739Z,1025.1
2023-03-04T06:25:15.596Z,1025.1
2023-03-04T06:30:39.668Z,1025.1
2023-03-04T06:36:32.744Z,1025.2
2023-03-04T06:41:51.924Z,1025
2023-03-04T06:47:27.561Z,1025.3
2023-03-04T06:52:52.040Z,1025.2
2023-03-04T06:58:30.404Z,1025.2
2023-03-04T07:03:51.778Z,1025.3
2023-03-04T07:09:48.422Z,1025.3
2023-03-04T07:15:16.828Z,1025.4
2023-03-04T07:20:48.501Z,1025.4
2023-03-04T07:26:04.428Z,1025.4
2023-03-04T07:31:54.247Z,1025.3
2023-03-04T07:37:35.625Z,1025.1
2023-03-04T07:42:52.000Z,1024.9
2023-03-04T07:48:36.400Z,1024.9
2023-03-04T07:54:03.756Z,1025.1
2023-03-04T07:59:25.038Z,1025
2023-03-04T08:05:19.045Z,1025
2023-03-04T08:10:49.223Z,1025
2023-03-04T08:16:06.092Z,1025.1
2023-03-04T08:22:04.722Z,1025
2023-03-04T08:27:22.651Z,1024.9
2023-03-04T08:33:12.943Z,1025
2023-03-04T08:38:35.688Z,1024.9
2023-03-04T08:44:14.794Z,1025
2023-03-04T08:49:38.616Z,1024.9
2023-03-04T08:55:25.151Z,1024.9
2023-03-04T09:00:44.855Z,1024.8
2023-03-04T09:06:42.129Z,1024.8
2023-03-04T09:11:57.909Z,1024.6
2023-03-04T09:17:29.517Z,1024.6
2023-03-04T09:23:16.110Z,1024.6
2023-03-04T09:28:48.955Z,1024.6
2023-03-04T09:34:14.247Z,1024.5
2023-03-04T09:39:55.115Z,1024.4
2023-03-04T09:45:28.730Z,1024.5
2023-03-04T09:51:00.490Z,1024.3
2023-03-04T09:56:42.327Z,1024.2
2023-03-04T10:02:19.374Z,1024.2
2023-03-04T10:07:45.718Z,1024.2
2023-03-04T10:13:23.172Z,1024.1
2023-03-04T10:18:59.993Z,1024
2023-03-04T10:24:33.062Z,1023.9
2023-03-04T10:30:29.777Z,1023.8
2023-03-04T10:36:00.425Z,1023.7
2023-03-04T10:41:32.483Z,1023.7
2023-03-04T10:47:06.754Z,1023.6
2023-03-04T10:52:33.469Z,1023.6
2023-03-04T10:58:07.568Z,1023.4
2023-03-04T11:03:54.759Z,1023.2
2023-03-04T11:09:29.516Z,1023.3
2023-03-04T11:15:02.824Z,1023.1
2023-03-04T11:20:28.917Z,1023.1
2023-03-04T11:26:06.324Z,1023
2023-03-04T11:31:47.668Z,1022.9
2023-03-04T11:37:21.845Z,1022.6
2023-03-04T11:42:54.473Z,1022.7
2023-03-04T11:48:49.051Z,1022.6
2023-03-04T11:54:32.619Z,1022.6
2023-03-04T11:59:42.071Z,1022.3
2023-03-04T12:05:25.768Z,1022.1
2023-03-04T12:11:01.963Z,1022.2
2023-03-04T12:16:30.094Z,1022
2023-03-04T12:22:11.205Z,1022
2023-03-04T12:28:08.081Z,1021.7
2023-03-04T12:33:20.282Z,1021.7
2023-03-04T12:39:05.919Z,1021.6
2023-03-04T12:44:33.097Z,1021.5
2023-03-04T12:50:17.663Z,1021.4
2023-03-04T12:55:53.518Z,1021.3
2023-03-04T13:01:46.976Z,1021
2023-03-04T13:07:26.410Z,1021.1
2023-03-04T13:13:00.681Z,1021
2023-03-04T13:18:34.017Z,1021
2023-03-04T13:24:16.700Z,1020.8
2023-03-04T13:29:51.800Z,1020.9
2023-03-04T13:35:03.555Z,1020.8
2023-03-04T13:40:59.751Z,1020.6
2023-03-04T13:46:29.871Z,1020.8
2023-03-04T13:52:11.652Z,1020.9
2023-03-04T13:57:28.444Z,1020.7
2023-03-04T14:03:10.870Z,1020.7
2023-03-04T14:08:55.190Z,1020.7
2023-03-04T14:14:17.706Z,1020.7
2023-03-04T14:20:21.350Z,1020.8
2023-03-04T14:25:36.509Z,1020.6
2023-03-04T14:31:25.791Z,1020.6
2023-03-04T14:37:05.105Z,1020.6
2023-03-04T14:42:24.604Z,1020.5
2023-03-04T14:48:00.745Z,1020.6
2023-03-04T14:53:38.686Z,1020.5
2023-03-04T14:59:07.794Z,1020.4
2023-03-04T15:04:51.622Z,1020.4
2023-03-04T15:10:43.640Z,1020.4
2023-03-04T15:16:10.944Z,1020.3
2023-03-04T15:21:35.838Z,1020.2
2023-03-04T15:27:23.246Z,1020.2
2023-03-04T15:33:08.101Z,1020.3
2023-03-04T15:38:42.806Z,1020.3
2023-03-04T15:49:49.809Z,1020.3
2023-03-04T15:55:26.216Z,1020.2
2023-03-04T16:00:46.886Z,1020.3
2023-03-04T16:06:37.351Z,1020.3
2023-03-04T16:11:54.133Z,1020.5
2023-03-04T16:17:34.270Z,1020.5
2023-03-04T16:23:16.580Z,1020.6
2023-03-04T16:28:44.089Z,1020.6
2023-03-04T16:34:11.204Z,1020.8
2023-03-04T16:39:54.199Z,1020.8
2023-03-04T16:45:29.988Z,1020.9
2023-03-04T16:51:06.543Z,1021
2023-03-04T16:56:33.025Z,1021
2023-03-04T17:02:18.550Z,1021.2
2023-03-04T17:07:38.638Z,1021.2
2023-03-04T17:13:28.423Z,1021.2
2023-03-04T17:19:03.983Z,1021.2
2023-03-04T17:24:37.235Z,1021.3
2023-03-04T17:30:21.840Z,1021.6
2023-03-04T17:35:50.249Z,1021.6
2023-03-04T17:41:14.096Z,1021.6
2023-03-04T17:46:51.669Z,1021.7
2023-03-04T17:52:27.549Z,1021.7
2023-03-04T17:57:58.793Z,1021.7
2023-03-04T18:03:45.352Z,1021.7
2023-03-04T18:08:58.987Z,1021.9
2023-03-04T18:14:28.882Z,1021.9
2023-03-04T18:20:30.126Z,1022
2023-03-04T18:26:04.051Z,1022
2023-03-04T18:31:14.382Z,1021.9
2023-03-04T18:37:06.018Z,1022.1
2023-03-04T18:42:32.239Z,1022.1
2023-03-04T18:47:58.295Z,1022.1
2023-03-04T18:53:29.505Z,1022
2023-03-04T18:59:04.987Z,1022.2
2023-03-04T19:04:52.335Z,1022.3
2023-03-04T19:10:10.389Z,1022.4
2023-03-04T19:16:04.849Z,1022.2
2023-03-04T19:21:28.802Z,1022.4
2023-03-04T19:26:58.398Z,1022.4
2023-03-04T19:32:29.635Z,1022.3
2023-03-04T19:38:24.644Z,1022.2
2023-03-04T19:43:47.746Z,1022.3
2023-03-04T19:49:24.437Z,1022.2
2023-03-04T19:54:53.847Z,1022.4
2023-03-04T20:00:15.267Z,1022.3
2023-03-04T20:06:04.828Z,1022.4
2023-03-04T20:11:56.493Z,1022.4
2023-03-04T20:17:03.595Z,1022.4
2023-03-04T20:22:29.084Z,1022.4
2023-03-04T20:28:23.823Z,1022.4
2023-03-04T20:33:47.817Z,1022.4
2023-03-04T20:39:37.136Z,1022.5
2023-03-04T20:44:47.776Z,1022.5
2023-03-04T20:50:20.221Z,1022.7
2023-03-04T20:56:02.085Z,1022.6
2023-03-04T21:01:24.185Z,1022.7
2023-03-04T21:07:21.288Z,1022.8
2023-03-04T21:12:51.625Z,1022.8
2023-03-04T21:18:18.389Z,1022.9
2023-03-04T21:24:01.331Z,1022.9
2023-03-04T21:29:29.059Z,1023.1
2023-03-04T21:35:08.464Z,1023
2023-03-04T21:40:28.970Z,1023.1
2023-03-04T21:45:49.399Z,1023
2023-03-04T21:51:32.600Z,1023.1
2023-03-04T21:57:09.343Z,1023.1
2023-03-04T22:02:49.450Z,1023
2023-03-04T22:08:02.835Z,1023
2023-03-04T22:13:45.500Z,1023
2023-03-04T22:19:10.514Z,1023.1
2023-03-04T22:24:54.304Z,1023.3
2023-03-04T22:30:42.012Z,1023.3
2023-03-04T22:35:52.687Z,1023.2
2023-03-04T22:41:26.219Z,1023.4
2023-03-04T22:47:11.420Z,1023.5
2023-03-04T22:52:32.850Z,1023.6
2023-03-04T22:58:20.157Z,1023.7
2023-03-04T23:03:55.103Z,1023.7
2023-03-04T23:09:17.587Z,1023.8
2023-03-04T23:14:52.711Z,1023.8
2023-03-04T23:20:30.987Z,1023.9
2023-03-04T23:25:54.572Z,1023.7
2023-03-04T23:31:24.133Z,1023.6
2023-03-04T23:37:18.070Z,1023.7
2023-03-04T23:42:41.353Z,1024.1
2023-03-04T23:48:17.001Z,1024
2023-03-04T23:53:44.059Z,1024
2023-03-04T23:59:21.144Z,1024
